Time,TemperatureF,DewpointF,PressureIn,WindDirection,WindDirectionDegrees,WindSpeedMPH,WindSpeedGustMPH,Humidity,HourlyPrecipIn,Conditions,Clouds,dailyrainin,SoftwareType,DateUTC
2013-03-14 00:02:00,36.0,23.0,30.29,South,185,0.0,-999.0,58,-99.99,,,-99.99,,2013-03-14 06:02:00,
2013-03-14 00:12:00,36.0,23.0,30.29,South,185,0.0,-999.0,58,-99.99,,,-99.99,,2013-03-14 06:12:00,
2013-03-14 00:21:00,35.0,21.0,30.29,South,185,0.0,-999.0,56,-99.99,,,-99.99,,2013-03-14 06:21:00,
2013-03-14 00:32:00,35.0,21.0,30.29,South,185,0.0,-999.0,56,-99.99,,,-99.99,,2013-03-14 06:32:00,
2013-03-14 00:41:00,35.0,21.0,30.29,South,185,0.0,-999.0,56,-99.99,,,-99.99,,2013-03-14 06:41:00,
2013-03-14 00:52:00,37.0,20.0,30.29,South,185,0.0,-999.0,50,-99.99,,,-99.99,,2013-03-14 06:52:00,
2013-03-14 01:02:00,36.0,19.0,30.29,South,185,0.0,-999.0,50,-99.99,,,-99.99,,2013-03-14 07:02:00,
2013-03-14 01:11:00,36.0,19.0,30.29,South,185,0.0,-999.0,50,-99.99,,,-99.99,,2013-03-14 07:11:00,
2013-03-14 01:22:00,35.0,19.0,30.28,South,185,0.0,-999.0,51,-99.99,,,-99.99,,2013-03-14 07:22:00,
2013-03-14 01:32:00,35.0,19.0,30.28,South,185,0.0,-999.0,51,-99.99,,,-99.99,,2013-03-14 07:32:00,
2013-03-14 01:42:00,35.0,19.0,30.28,South,185,0.0,-999.0,51,-99.99,,,-99.99,,2013-03-14 07:42:00,
2013-03-14 01:52:00,36.0,19.0,30.28,South,184,0.0,-999.0,50,-99.99,,,-99.99,,2013-03-14 07:52:00,
2013-03-14 02:02:00,35.0,18.0,30.28,South,185,0.0,-999.0,50,-99.99,,,-99.99,,2013-03-14 08:02:00,
2013-03-14 02:11:00,35.0,18.0,30.28,South,185,0.0,-999.0,50,-99.99,,,-99.99,,2013-03-14 08:11:00,
2013-03-14 02:21:00,35.0,18.0,30.28,South,184,0.0,-999.0,49,-99.99,,,-99.99,,2013-03-14 08:21:00,
2013-03-14 02:32:00,36.0,20.0,30.28,South,185,0.0,-999.0,51,-99.99,,,-99.99,,2013-03-14 08:32:00,
2013-03-14 02:41:00,36.0,20.0,30.28,South,185,0.0,-999.0,51,-99.99,,,-99.99,,2013-03-14 08:41:00,
2013-03-14 02:51:00,35.0,18.0,30.28,South,185,0.0,-999.0,50,-99.99,,,-99.99,,2013-03-14 08:51:00,
2013-03-14 03:01:00,34.0,17.0,30.28,South,185,0.0,-999.0,50,-99.99,,,-99.99,,2013-03-14 09:01:00,
2013-03-14 03:11:00,34.0,17.0,30.28,South,185,0.0,-999.0,50,-99.99,,,-99.99,,2013-03-14 09:11:00,
2013-03-14 03:22:00,34.0,17.0,30.27,South,184,0.0,-999.0,50,-99.99,,,-99.99,,2013-03-14 09:22:00,
2013-03-14 03:32:00,33.0,18.0,30.27,South,184,0.0,-999.0,53,-99.99,,,-99.99,,2013-03-14 09:32:00,
2013-03-14 03:41:00,33.0,18.0,30.27,South,184,0.0,-999.0,53,-99.99,,,-99.99,,2013-03-14 09:41:00,
2013-03-14 03:52:00,33.0,18.0,30.27,South,185,0.0,-999.0,54,-99.99,,,-99.99,,2013-03-14 09:52:00,
2013-03-14 04:02:00,33.0,17.0,30.27,South,185,0.0,-999.0,52,-99.99,,,-99.99,,2013-03-14 10:02:00,
2013-03-14 04:11:00,33.0,17.0,30.27,South,185,0.0,-999.0,52,-99.99,,,-99.99,,2013-03-14 10:11:00,
2013-03-14 04:22:00,32.0,17.0,30.27,South,185,0.0,-999.0,53,-99.99,,,-99.99,,2013-03-14 10:22:00,
2013-03-14 04:32:00,32.0,17.0,30.27,South,184,0.0,-999.0,54,-99.99,,,-99.99,,2013-03-14 10:32:00,
2013-03-14 04:42:00,32.0,17.0,30.27,South,184,0.0,-999.0,54,-99.99,,,-99.99,,2013-03-14 10:42:00,
2013-03-14 04:52:00,32.0,19.0,30.27,South,185,0.0,-999.0,57,-99.99,,,-99.99,,2013-03-14 10:52:00,
2013-03-14 05:01:00,31.0,18.0,30.27,South,186,0.0,-999.0,57,-99.99,,,-99.99,,2013-03-14 11:01:00,
2013-03-14 05:11:00,31.0,18.0,30.27,South,186,0.0,-999.0,57,-99.99,,,-99.99,,2013-03-14 11:11:00,
2013-03-14 05:22:00,31.0,18.0,30.27,South,186,0.0,-999.0,58,-99.99,,,-99.99,,2013-03-14 11:22:00,
2013-03-14 05:32:00,31.0,17.0,30.26,South,186,0.0,-999.0,56,-99.99,,,-99.99,,2013-03-14 11:32:00,
2013-03-14 05:41:00,31.0,17.0,30.26,South,186,0.0,-999.0,56,-99.99,,,-99.99,,2013-03-14 11:41:00,
2013-03-14 05:52:00,31.0,17.0,30.26,South,186,0.0,-999.0,56,-99.99,,,-99.99,,2013-03-14 11:52:00,
2013-03-14 06:01:00,31.0,18.0,30.26,South,186,0.0,-999.0,59,-99.99,,,-99.99,,2013-03-14 12:01:00,
2013-03-14 06:11:00,31.0,18.0,30.26,South,186,0.0,-999.0,59,-99.99,,,-99.99,,2013-03-14 12:11:00,
2013-03-14 06:21:00,31.0,17.0,30.25,South,186,0.0,-999.0,56,-99.99,,,-99.99,,2013-03-14 12:21:00,
2013-03-14 06:32:00,30.0,16.0,30.26,South,186,0.0,-999.0,55,-99.99,,,-99.99,,2013-03-14 12:32:00,
2013-03-14 06:42:00,30.0,16.0,30.26,South,186,0.0,-999.0,55,-99.99,,,-99.99,,2013-03-14 12:42:00,
2013-03-14 06:52:00,31.0,17.0,30.26,South,186,0.0,-999.0,56,-99.99,,,-99.99,,2013-03-14 12:52:00,
2013-03-14 07:02:00,31.0,17.0,30.27,South,186,0.0,-999.0,56,-99.99,,,-99.99,,2013-03-14 13:02:00,
2013-03-14 07:12:00,31.0,17.0,30.27,South,186,0.0,-999.0,56,-99.99,,,-99.99,,2013-03-14 13:12:00,
2013-03-14 07:21:00,30.0,16.0,30.27,South,186,0.0,-999.0,56,-99.99,,,-99.99,,2013-03-14 13:21:00,
2013-03-14 07:32:00,30.0,15.0,30.27,South,186,0.0,-999.0,54,-99.99,,,-99.99,,2013-03-14 13:32:00,
2013-03-14 07:42:00,30.0,15.0,30.27,South,186,0.0,-999.0,54,-99.99,,,-99.99,,2013-03-14 13:42:00,
2013-03-14 07:52:00,31.0,16.0,30.28,South,186,0.0,-999.0,53,-99.99,,,-99.99,,2013-03-14 13:52:00,
2013-03-14 08:02:00,30.0,17.0,30.28,South,186,0.0,-999.0,57,-99.99,,,-99.99,,2013-03-14 14:02:00,
2013-03-14 08:11:00,30.0,17.0,30.28,South,186,0.0,-999.0,57,-99.99,,,-99.99,,2013-03-14 14:11:00,
2013-03-14 08:22:00,31.0,16.0,30.29,South,186,0.0,-999.0,53,-99.99,,,-99.99,,2013-03-14 14:22:00,
2013-03-14 08:32:00,31.0,15.0,30.29,South,186,0.0,-999.0,52,-99.99,,,-99.99,,2013-03-14 14:32:00,
2013-03-14 08:42:00,31.0,15.0,30.29,South,186,0.0,-999.0,52,-99.99,,,-99.99,,2013-03-14 14:42:00,
2013-03-14 08:52:00,32.0,16.0,30.30,South,186,0.0,-999.0,52,-99.99,,,-99.99,,2013-03-14 14:52:00,
2013-03-14 09:02:00,33.0,16.0,30.30,South,186,0.0,-999.0,49,-99.99,,,-99.99,,2013-03-14 15:02:00,
2013-03-14 09:11:00,33.0,16.0,30.30,South,186,0.0,-999.0,49,-99.99,,,-99.99,,2013-03-14 15:11:00,
2013-03-14 09:22:00,34.0,16.0,30.30,South,186,0.0,-999.0,48,-99.99,,,-99.99,,2013-03-14 15:22:00,
2013-03-14 09:32:00,36.0,17.0,30.30,South,186,0.0,-999.0,45,-99.99,,,-99.99,,2013-03-14 15:32:00,
2013-03-14 09:42:00,36.0,17.0,30.30,South,186,0.0,-999.0,45,-99.99,,,-99.99,,2013-03-14 15:42:00,
2013-03-14 09:52:00,39.0,18.0,30.30,South,186,0.0,-999.0,43,-99.99,,,-99.99,,2013-03-14 15:52:00,
2013-03-14 10:02:00,41.0,18.0,30.31,SE,132,1.0,-999.0,39,-99.99,,,-99.99,,2013-03-14 16:02:00,
2013-03-14 10:12:00,41.0,18.0,30.31,SE,132,1.0,-999.0,39,-99.99,,,-99.99,,2013-03-14 16:12:00,
2013-03-14 10:22:00,42.0,21.0,30.30,SE,132,0.0,-999.0,42,-99.99,,,-99.99,,2013-03-14 16:22:00,
2013-03-14 10:32:00,45.0,20.0,30.29,SE,132,0.0,-999.0,36,-99.99,,,-99.99,,2013-03-14 16:32:00,
2013-03-14 10:41:00,45.0,20.0,30.29,SE,132,0.0,-999.0,36,-99.99,,,-99.99,,2013-03-14 16:41:00,
2013-03-14 10:52:00,46.0,20.0,30.29,SE,133,1.0,-999.0,35,-99.99,,,-99.99,,2013-03-14 16:52:00,
2013-03-14 11:01:00,46.0,20.0,30.29,SE,133,1.0,-999.0,35,-99.99,,,-99.99,,2013-03-14 17:01:00,
2013-03-14 11:12:00,46.0,20.0,30.29,SE,133,1.0,-999.0,35,-99.99,,,-99.99,,2013-03-14 17:12:00,
2013-03-14 11:22:00,49.0,20.0,30.29,SE,133,0.0,-999.0,32,-99.99,,,-99.99,,2013-03-14 17:22:00,
2013-03-14 11:32:00,50.0,20.0,30.28,SE,133,0.0,-999.0,30,-99.99,,,-99.99,,2013-03-14 17:32:00,
2013-03-14 11:42:00,50.0,20.0,30.28,SE,133,0.0,-999.0,30,-99.99,,,-99.99,,2013-03-14 17:42:00,
2013-03-14 11:52:00,50.0,20.0,30.28,WNW,292,3.0,-999.0,30,-99.99,,,-99.99,,2013-03-14 17:52:00,
2013-03-14 12:02:00,51.0,19.0,30.27,West,281,4.0,-999.0,28,-99.99,,,-99.99,,2013-03-14 18:02:00,
2013-03-14 12:12:00,51.0,19.0,30.27,West,281,4.0,-999.0,28,-99.99,,,-99.99,,2013-03-14 18:12:00,
2013-03-14 12:22:00,52.0,20.0,30.27,WNW,303,3.0,-999.0,28,-99.99,,,-99.99,,2013-03-14 18:22:00,
2013-03-14 12:32:00,53.0,20.0,30.27,South,186,2.0,-999.0,27,-99.99,,,-99.99,,2013-03-14 18:32:00,
2013-03-14 12:42:00,53.0,20.0,30.27,South,186,2.0,-999.0,27,-99.99,,,-99.99,,2013-03-14 18:42:00,
2013-03-14 12:52:00,54.0,21.0,30.26,WSW,251,2.0,-999.0,27,-99.99,,,-99.99,,2013-03-14 18:52:00,
2013-03-14 13:02:00,55.0,22.0,30.26,ESE,103,2.0,-999.0,27,-99.99,,,-99.99,,2013-03-14 19:02:00,
2013-03-14 13:12:00,55.0,22.0,30.26,ESE,103,2.0,-999.0,27,-99.99,,,-99.99,,2013-03-14 19:12:00,
2013-03-14 13:22:00,55.0,23.0,30.25,South,190,3.0,-999.0,29,-99.99,,,-99.99,,2013-03-14 19:22:00,
2013-03-14 13:32:00,55.0,21.0,30.25,West,277,3.0,-999.0,26,-99.99,,,-99.99,,2013-03-14 19:32:00,
2013-03-14 13:42:00,55.0,21.0,30.25,West,277,3.0,-999.0,26,-99.99,,,-99.99,,2013-03-14 19:42:00,
2013-03-14 13:52:00,54.0,22.0,30.24,WSW,257,4.0,-999.0,28,-99.99,,,-99.99,,2013-03-14 19:52:00,
2013-03-14 14:02:00,54.0,22.0,30.23,West,279,4.0,-999.0,28,-99.99,,,-99.99,,2013-03-14 20:02:00,
2013-03-14 14:22:00,56.0,23.0,30.23,SW,232,3.0,-999.0,28,-99.99,,,-99.99,,2013-03-14 20:22:00,
2013-03-14 14:31:00,56.0,23.0,30.22,West,264,3.0,-999.0,28,-99.99,,,-99.99,,2013-03-14 20:31:00,
2013-03-14 14:42:00,56.0,23.0,30.22,West,264,3.0,-999.0,28,-99.99,,,-99.99,,2013-03-14 20:42:00,
2013-03-14 14:51:00,56.0,25.0,30.21,South,186,3.0,-999.0,30,-99.99,,,-99.99,,2013-03-14 20:51:00,
2013-03-14 15:02:00,57.0,23.0,30.20,South,183,3.0,-999.0,27,-99.99,,,-99.99,,2013-03-14 21:02:00,
2013-03-14 15:12:00,57.0,23.0,30.20,South,183,3.0,-999.0,27,-99.99,,,-99.99,,2013-03-14 21:12:00,
2013-03-14 15:21:00,57.0,23.0,30.19,South,169,4.0,-999.0,27,-99.99,,,-99.99,,2013-03-14 21:21:00,
2013-03-14 15:32:00,57.0,23.0,30.19,South,169,4.0,-999.0,27,-99.99,,,-99.99,,2013-03-14 21:32:00,
2013-03-14 15:43:00,57.0,23.0,30.19,South,169,4.0,-999.0,27,-99.99,,,-99.99,,2013-03-14 21:43:00,
2013-03-14 15:52:00,59.0,26.0,30.17,South,190,2.0,-999.0,28,-99.99,,,-99.99,,2013-03-14 21:52:00,
2013-03-14 16:03:00,60.0,26.0,30.16,South,185,2.0,-999.0,27,-99.99,,,-99.99,,2013-03-14 22:03:00,
2013-03-14 16:23:00,58.0,23.0,30.17,WNW,288,3.0,-999.0,26,-99.99,,,-99.99,,2013-03-14 22:23:00,
2013-03-14 16:32:00,58.0,23.0,30.17,SSE,161,2.0,-999.0,26,-99.99,,,-99.99,,2013-03-14 22:32:00,
2013-03-14 16:41:00,58.0,23.0,30.17,SSE,161,2.0,-999.0,26,-99.99,,,-99.99,,2013-03-14 22:41:00,
2013-03-14 16:52:00,59.0,23.0,30.17,WSW,253,2.0,-999.0,25,-99.99,,,-99.99,,2013-03-14 22:52:00,
2013-03-14 17:02:00,59.0,23.0,30.16,SSW,198,2.0,-999.0,25,-99.99,,,-99.99,,2013-03-14 23:02:00,
2013-03-14 17:11:00,59.0,23.0,30.16,SSW,198,2.0,-999.0,25,-99.99,,,-99.99,,2013-03-14 23:11:00,
2013-03-14 17:21:00,59.0,24.0,30.16,NW,315,2.0,-999.0,26,-99.99,,,-99.99,,2013-03-14 23:21:00,
2013-03-14 17:42:00,59.0,24.0,30.16,NW,315,2.0,-999.0,26,-99.99,,,-99.99,,2013-03-14 23:42:00,
2013-03-14 17:52:00,59.0,25.0,30.15,WNW,286,2.0,-999.0,27,-99.99,,,-99.99,,2013-03-14 23:52:00,
2013-03-14 18:02:00,59.0,25.0,30.15,SSE,161,1.0,-999.0,27,-99.99,,,-99.99,,2013-03-15 00:02:00,
2013-03-14 18:12:00,59.0,27.0,30.15,SSE,160,1.0,-999.0,29,-99.99,,,-99.99,,2013-03-15 00:12:00,
2013-03-14 18:22:00,59.0,27.0,30.15,SSE,160,1.0,-999.0,29,-99.99,,,-99.99,,2013-03-15 00:22:00,
2013-03-14 18:32:00,56.0,25.0,30.15,SSE,161,0.0,-999.0,30,-99.99,,,-99.99,,2013-03-15 00:32:00,
2013-03-14 18:42:00,56.0,25.0,30.15,SSE,161,0.0,-999.0,30,-99.99,,,-99.99,,2013-03-15 00:42:00,
2013-03-14 18:52:00,52.0,22.0,30.14,SSE,161,0.0,-999.0,31,-99.99,,,-99.99,,2013-03-15 00:52:00,
2013-03-14 19:02:00,50.0,27.0,30.15,SSE,161,0.0,-999.0,40,-99.99,,,-99.99,,2013-03-15 01:02:00,
2013-03-14 19:21:00,49.0,23.0,30.15,SSE,160,0.0,-999.0,36,-99.99,,,-99.99,,2013-03-15 01:21:00,
2013-03-14 19:32:00,49.0,22.0,30.15,SSE,160,0.0,-999.0,34,-99.99,,,-99.99,,2013-03-15 01:32:00,
2013-03-14 19:42:00,49.0,22.0,30.15,SSE,160,0.0,-999.0,34,-99.99,,,-99.99,,2013-03-15 01:42:00,
2013-03-14 19:52:00,48.0,25.0,30.16,SSE,161,0.0,-999.0,40,-99.99,,,-99.99,,2013-03-15 01:52:00,
2013-03-14 20:02:00,47.0,23.0,30.16,SSE,161,0.0,-999.0,39,-99.99,,,-99.99,,2013-03-15 02:02:00,
2013-03-14 20:22:00,47.0,25.0,30.16,SSE,161,0.0,-999.0,42,-99.99,,,-99.99,,2013-03-15 02:22:00,
2013-03-14 20:32:00,45.0,25.0,30.16,SSE,161,0.0,-999.0,45,-99.99,,,-99.99,,2013-03-15 02:32:00,
2013-03-14 20:51:00,43.0,24.0,30.16,SSE,160,0.0,-999.0,47,-99.99,,,-99.99,,2013-03-15 02:51:00,
2013-03-14 21:01:00,43.0,25.0,30.17,SSE,161,0.0,-999.0,48,-99.99,,,-99.99,,2013-03-15 03:01:00,
2013-03-14 21:22:00,42.0,23.0,30.17,SSE,161,0.0,-999.0,47,-99.99,,,-99.99,,2013-03-15 03:22:00,
2013-03-14 21:32:00,42.0,26.0,30.17,SSE,161,0.0,-999.0,52,-99.99,,,-99.99,,2013-03-15 03:32:00,
2013-03-14 21:52:00,40.0,24.0,30.18,SSE,161,0.0,-999.0,52,-99.99,,,-99.99,,2013-03-15 03:52:00,
2013-03-14 22:03:00,39.0,23.0,30.18,SSE,160,0.0,-999.0,52,-99.99,,,-99.99,,2013-03-15 04:03:00,
2013-03-14 22:22:00,40.0,24.0,30.18,SSE,160,0.0,-999.0,52,-99.99,,,-99.99,,2013-03-15 04:22:00,
2013-03-14 22:32:00,40.0,22.0,30.18,SSE,161,0.0,-999.0,48,-99.99,,,-99.99,,2013-03-15 04:32:00,
2013-03-14 22:42:00,40.0,22.0,30.18,SSE,161,0.0,-999.0,48,-99.99,,,-99.99,,2013-03-15 04:42:00,
2013-03-14 22:52:00,38.0,23.0,30.18,SSE,161,0.0,-999.0,55,-99.99,,,-99.99,,2013-03-15 04:52:00,
2013-03-14 23:02:00,38.0,22.0,30.18,SSE,161,0.0,-999.0,51,-99.99,,,-99.99,,2013-03-15 05:02:00,
2013-03-14 23:12:00,38.0,22.0,30.18,SSE,161,0.0,-999.0,51,-99.99,,,-99.99,,2013-03-15 05:12:00,
2013-03-14 23:22:00,37.0,21.0,30.18,SSE,161,0.0,-999.0,52,-99.99,,,-99.99,,2013-03-15 05:22:00,
2013-03-14 23:32:00,38.0,23.0,30.19,SSE,160,0.0,-999.0,54,-99.99,,,-99.99,,2013-03-15 05:32:00,
2013-03-14 23:42:00,38.0,23.0,30.19,SSE,160,0.0,-999.0,54,-99.99,,,-99.99,,2013-03-15 05:42:00,
2013-03-14 23:52:00,37.0,22.0,30.19,SSE,161,0.0,-999.0,55,-99.99,,,-99.99,,2013-03-15 05:52:00,